Time;durP1;ratioP1;P1;durP2;ratioP2;P2;SDS_P1;SDS_P2;PMS_P1;PMS_P2;Temp;Humidity;BMP_temperature;BMP_pressure;BME280_temperature;BME280_humidity;BME280_pressure;Samples;Min_cycle;Max_cycle;Signal;HPM_P1;HPM_P2
2022/01/28 00:01:48;;;;;;;4.72;2.72;;;3.80;99.90;;;;;;5016005;28;20788;-73
2022/01/28 00:04:16;;;;;;;9.82;3.80;;;3.80;99.90;;;;;;5016333;28;20154;-75
2022/01/28 00:06:41;;;;;;;5.32;4.35;;;3.80;99.90;;;;;;5016345;28;20529;-75
2022/01/28 00:09:07;;;;;;;6.17;3.60;;;3.80;99.90;;;;;;5014521;28;20198;-73
2022/01/28 00:11:33;;;;;;;3.63;2.83;;;3.70;99.90;;;;;;5016430;28;20179;-73
2022/01/28 00:14:14;;;;;;;4.90;4.37;;;3.70;99.90;;;;;;5015923;28;20195;-74
2022/01/28 00:19:51;;;;;;;3.50;3.17;;;3.70;99.90;;;;;;5015428;28;20703;-75
2022/01/28 00:38:30;;;;;;;6.70;5.65;;;4.00;99.90;;;;;;5015460;28;20181;-75
2022/01/28 00:40:56;;;;;;;6.95;5.60;;;4.00;99.90;;;;;;5015598;28;20573;-74
2022/01/28 00:43:21;;;;;;;4.10;3.43;;;4.00;99.90;;;;;;5015471;28;20170;-73
2022/01/28 00:45:47;;;;;;;3.90;3.20;;;4.10;99.90;;;;;;5030594;28;20185;-73
2022/01/28 00:48:13;;;;;;;4.03;3.05;;;4.10;99.90;;;;;;5030101;28;20178;-74
2022/01/28 00:50:41;;;;;;;4.10;3.50;;;4.10;99.90;;;;;;5015119;28;20203;-75
2022/01/28 00:53:07;;;;;;;3.42;3.00;;;4.10;99.90;;;;;;5015467;28;20174;-75
2022/01/28 00:55:33;;;;;;;9.50;3.20;;;4.10;99.90;;;;;;5015143;28;20175;-75
2022/01/28 00:57:58;;;;;;;4.13;3.60;;;4.20;99.90;;;;;;5015001;28;20485;-75
2022/01/28 01:00:24;;;;;;;7.23;4.23;;;4.20;99.90;;;;;;5014719;28;20657;-74
2022/01/28 01:02:50;;;;;;;4.27;4.00;;;4.30;99.90;;;;;;5015363;28;20170;-73
2022/01/28 01:05:15;;;;;;;4.50;2.40;;;4.30;99.90;;;;;;5015199;28;20253;-75
2022/01/28 01:07:41;;;;;;;3.47;3.17;;;4.20;99.90;;;;;;5015082;28;20171;-75
2022/01/28 01:10:08;;;;;;;7.50;4.67;;;4.20;99.90;;;;;;5014897;28;20191;-75
2022/01/28 01:12:39;;;;;;;2.65;2.45;;;4.20;99.90;;;;;;5015017;28;20181;-75
2022/01/28 01:15:06;;;;;;;3.45;2.70;;;4.10;99.90;;;;;;5014814;28;20265;-73
2022/01/28 01:17:37;;;;;;;3.95;3.55;;;4.10;99.90;;;;;;5014650;28;20171;-74
2022/01/28 01:20:20;;;;;;;3.90;3.38;;;4.10;99.90;;;;;;5014814;28;20187;-77
2022/01/28 01:22:53;;;;;;;3.92;3.53;;;4.10;99.90;;;;;;5029983;28;20178;-75
2022/01/28 01:25:26;;;;;;;5.68;4.07;;;4.10;99.90;;;;;;5014750;28;20170;-75
2022/01/28 01:27:55;;;;;;;3.58;2.50;;;4.10;99.90;;;;;;5014391;28;20191;-75
2022/01/28 01:30:22;;;;;;;2.28;1.88;;;4.10;99.90;;;;;;5014199;28;20257;-76
2022/01/28 01:32:47;;;;;;;4.20;2.70;;;4.10;99.90;;;;;;5014721;28;20184;-74
2022/01/28 01:35:13;;;;;;;4.07;2.50;;;4.00;99.90;;;;;;5014750;28;20202;-75
2022/01/28 01:37:39;;;;;;;4.60;3.10;;;4.00;99.90;;;;;;5013951;28;20661;-74
2022/01/28 01:40:05;;;;;;;3.47;3.10;;;4.00;99.90;;;;;;5014268;28;20187;-75
2022/01/28 01:42:42;;;;;;;2.05;1.92;;;3.90;99.90;;;;;;5012591;28;20259;-77
2022/01/28 01:53:42;;;;;;;2.88;2.58;;;3.90;99.90;;;;;;5008060;28;20293;-75
2022/01/28 01:56:08;;;;;;;3.40;3.03;;;3.80;99.90;;;;;;5014131;28;20246;-75
2022/01/28 01:58:35;;;;;;;3.30;3.00;;;3.80;99.90;;;;;;5013895;28;20672;-76
2022/01/28 02:01:02;;;;;;;3.95;3.28;;;3.70;99.90;;;;;;5013875;28;20523;-74
2022/01/28 02:03:29;;;;;;;4.50;3.60;;;3.70;99.90;;;;;;5014256;28;20677;-74
2022/01/28 02:05:59;;;;;;;4.82;3.50;;;3.70;99.90;;;;;;5014115;28;20256;-75
2022/01/28 02:08:30;;;;;;;5.72;3.63;;;3.60;99.90;;;;;;5013926;28;20221;-77
2022/01/28 02:10:58;;;;;;;4.22;3.60;;;3.60;99.90;;;;;;5014406;28;20217;-76
2022/01/28 02:13:29;;;;;;;10.55;3.28;;;3.60;99.90;;;;;;5014167;28;20191;-76
2022/01/28 02:15:56;;;;;;;3.03;2.80;;;3.50;99.90;;;;;;5013003;28;20187;-73
2022/01/28 02:18:22;;;;;;;2.97;2.75;;;3.50;99.90;;;;;;5013628;28;20525;-75
2022/01/28 02:20:51;;;;;;;4.80;3.92;;;3.50;99.90;;;;;;5014013;28;20177;-77
2022/01/28 02:23:19;;;;;;;4.18;2.88;;;3.50;99.90;;;;;;5013937;28;20514;-74
2022/01/28 02:25:44;;;;;;;6.68;3.30;;;3.40;99.90;;;;;;5013889;28;20167;-75
2022/01/28 02:28:13;;;;;;;6.17;3.03;;;3.40;99.90;;;;;;5013628;28;20328;-75
2022/01/28 02:30:39;;;;;;;3.95;3.20;;;3.30;99.90;;;;;;5012157;28;20209;-76
2022/01/28 02:33:12;;;;;;;4.38;3.10;;;3.30;99.90;;;;;;5013778;28;20163;-75
2022/01/28 02:35:40;;;;;;;3.83;2.90;;;3.20;99.90;;;;;;5014082;28;20282;-75
2022/01/28 02:38:07;;;;;;;6.85;4.65;;;3.20;99.90;;;;;;5013636;28;20191;-76
2022/01/28 02:40:33;;;;;;;3.58;3.03;;;3.10;99.90;;;;;;5013443;28;20186;-74
2022/01/28 02:43:04;;;;;;;1.80;1.70;;;3.10;99.90;;;;;;5028924;28;20261;-74
2022/01/28 02:45:36;;;;;;;4.47;3.38;;;3.10;99.90;;;;;;5013196;28;20163;-73
2022/01/28 02:48:07;;;;;;;3.22;2.92;;;3.10;99.90;;;;;;5013493;28;20163;-74
2022/01/28 02:50:41;;;;;;;3.30;2.95;;;3.10;99.90;;;;;;5013626;28;20292;-73
2022/01/28 02:53:09;;;;;;;5.38;2.95;;;3.10;99.90;;;;;;5013290;28;20253;-75
2022/01/28 02:55:39;;;;;;;4.82;4.45;;;3.20;99.90;;;;;;5015732;28;20163;-73
2022/01/28 02:58:21;;;;;;;3.03;2.72;;;3.20;99.90;;;;;;5017138;28;20507;-75
2022/01/28 03:00:47;;;;;;;3.65;3.35;;;3.30;99.90;;;;;;5016807;28;20209;-73
2022/01/28 03:03:15;;;;;;;7.57;3.97;;;3.30;99.90;;;;;;5017499;28;20534;-74
2022/01/28 03:05:41;;;;;;;4.60;3.13;;;3.40;99.90;;;;;;5032524;28;20174;-75
2022/01/28 03:08:07;;;;;;;4.10;2.97;;;3.50;99.90;;;;;;5016926;28;20170;-74
2022/01/28 03:13:16;;;;;;;3.30;3.03;;;3.60;99.90;;;;;;5017444;28;20170;-74
2022/01/28 03:15:50;;;;;;;6.55;2.67;;;3.60;99.90;;;;;;5017014;28;20313;-73
2022/01/28 03:18:20;;;;;;;3.60;3.00;;;3.60;99.90;;;;;;5016708;28;20163;-75
2022/01/28 03:23:17;;;;;;;3.42;2.70;;;3.70;99.90;;;;;;5017040;28;20167;-74
2022/01/28 03:25:44;;;;;;;6.47;3.67;;;3.70;99.90;;;;;;5016959;28;20521;-74
2022/01/28 03:28:11;;;;;;;3.80;3.08;;;3.70;99.90;;;;;;5016414;28;20629;-74
2022/01/28 03:30:36;;;;;;;3.38;3.05;;;3.70;99.90;;;;;;5016340;28;20194;-74
2022/01/28 03:33:02;;;;;;;5.20;3.60;;;3.70;99.90;;;;;;5016328;28;20179;-74
2022/01/28 03:35:30;;;;;;;4.00;2.22;;;3.70;99.90;;;;;;5016791;28;20203;-74
2022/01/28 03:38:00;;;;;;;7.70;4.07;;;3.70;99.90;;;;;;5016178;28;20163;-73
2022/01/28 03:40:27;;;;;;;5.43;3.80;;;3.80;99.90;;;;;;5016533;28;20187;-74
2022/01/28 03:42:52;;;;;;;3.78;2.30;;;3.80;99.90;;;;;;5016508;28;20585;-74
2022/01/28 03:45:18;;;;;;;5.20;3.97;;;3.80;99.90;;;;;;5016574;28;20250;-74
2022/01/28 03:47:44;;;;;;;3.73;3.43;;;3.90;99.90;;;;;;5016016;28;20582;-74
2022/01/28 03:50:09;;;;;;;5.20;3.93;;;3.90;99.90;;;;;;5016355;28;20226;-74
2022/01/28 03:52:35;;;;;;;2.93;2.20;;;3.90;99.90;;;;;;5016398;28;20186;-74
2022/01/28 03:55:03;;;;;;;3.10;2.88;;;3.90;99.90;;;;;;5015997;28;20590;-74
2022/01/28 03:57:28;;;;;;;3.75;3.40;;;3.90;99.90;;;;;;5016015;28;20171;-75
2022/01/28 03:59:54;;;;;;;3.33;2.20;;;4.00;99.90;;;;;;5015900;28;20187;-74
2022/01/28 04:02:24;;;;;;;4.87;3.43;;;3.90;99.90;;;;;;5015471;28;20175;-75
2022/01/28 04:12:47;;;;;;;6.07;3.15;;;3.90;99.90;;;;;;5016044;28;20568;-74
2022/01/28 04:17:51;;;;;;;5.57;4.32;;;4.00;99.90;;;;;;5015599;28;20174;-74
2022/01/28 04:20:17;;;;;;;4.10;3.33;;;4.00;99.90;;;;;;5015506;28;20183;-72
2022/01/28 04:22:43;;;;;;;2.90;2.38;;;4.00;99.90;;;;;;5015503;28;20256;-73
2022/01/28 04:25:09;;;;;;;5.03;3.97;;;4.10;99.90;;;;;;5015785;28;20229;-75
2022/01/28 04:27:34;;;;;;;6.15;3.80;;;4.10;99.90;;;;;;5015549;28;20276;-74
2022/01/28 04:30:00;;;;;;;4.70;2.83;;;4.10;99.90;;;;;;5015095;28;20199;-74
2022/01/28 04:32:28;;;;;;;5.27;3.30;;;4.10;99.90;;;;;;5015590;28;20170;-75
2022/01/28 04:34:54;;;;;;;11.75;3.97;;;4.10;99.90;;;;;;5030846;28;20281;-74
2022/01/28 04:39:58;;;;;;;7.13;4.57;;;4.10;99.90;;;;;;5014940;28;20597;-74
2022/01/28 04:45:39;;;;;;;3.08;2.50;;;4.10;99.90;;;;;;5015535;28;20177;-73
2022/01/28 04:48:15;;;;;;;5.63;3.88;;;4.10;99.90;;;;;;5014496;28;20271;-76
2022/01/28 05:27:22;;;;;;;3.20;2.45;;;3.00;99.90;;;;;;5014761;28;20171;-75
2022/01/28 05:29:47;;;;;;;4.80;3.13;;;3.00;99.90;;;;;;5013989;28;20186;-73
2022/01/28 05:32:13;;;;;;;13.30;4.50;;;2.80;99.90;;;;;;5014611;28;20178;-73
2022/01/28 05:34:40;;;;;;;4.70;4.30;;;2.80;99.90;;;;;;5029586;28;20198;-75
2022/01/28 05:37:07;;;;;;;5.68;3.72;;;2.80;99.90;;;;;;5015073;28;20163;-75
2022/01/28 05:39:33;;;;;;;9.20;3.72;;;2.70;99.90;;;;;;5014278;28;20606;-75
2022/01/28 05:41:59;;;;;;;3.33;3.13;;;2.70;99.90;;;;;;5014180;28;20170;-74
2022/01/28 05:44:27;;;;;;;3.00;2.47;;;2.60;99.90;;;;;;5014150;28;20515;-75
2022/01/28 05:46:56;;;;;;;4.55;2.95;;;2.60;99.90;;;;;;5014145;28;20397;-75
2022/01/28 05:49:22;;;;;;;4.75;2.95;;;2.60;99.90;;;;;;5012434;28;20190;-76
2022/01/28 05:51:48;;;;;;;3.42;3.08;;;2.60;99.90;;;;;;5014143;28;20174;-74
2022/01/28 05:54:14;;;;;;;4.67;3.30;;;2.60;99.90;;;;;;5029149;28;20210;-74
2022/01/28 05:56:39;;;;;;;4.37;4.03;;;2.50;99.90;;;;;;5014280;28;20657;-75
2022/01/28 05:59:05;;;;;;;6.57;5.73;;;2.50;99.90;;;;;;5014263;28;20241;-75
2022/01/28 06:01:31;;;;;;;5.30;3.20;;;2.50;99.90;;;;;;5014781;28;20163;-76
2022/01/28 06:03:57;;;;;;;3.10;2.83;;;2.50;99.90;;;;;;5015415;28;20464;-76
2022/01/28 06:06:24;;;;;;;8.03;5.03;;;2.50;99.90;;;;;;5014717;28;20174;-75
2022/01/28 06:08:54;;;;;;;4.43;3.28;;;2.50;99.90;;;;;;5013824;28;20436;-75
2022/01/28 06:11:21;;;;;;;5.65;3.33;;;2.50;99.90;;;;;;5014654;28;20199;-74
2022/01/28 06:13:47;;;;;;;4.25;3.80;;;2.50;99.90;;;;;;5014130;28;20549;-74
2022/01/28 06:16:14;;;;;;;4.30;3.07;;;2.50;99.90;;;;;;5013757;28;20178;-75
2022/01/28 06:18:41;;;;;;;4.78;3.35;;;2.50;99.90;;;;;;5013227;28;20162;-74
2022/01/28 06:21:07;;;;;;;2.65;2.33;;;2.50;99.90;;;;;;5013316;28;20197;-74
2022/01/28 06:23:33;;;;;;;3.65;2.92;;;2.50;99.90;;;;;;5013765;28;20179;-74
2022/01/28 06:25:59;;;;;;;5.70;4.35;;;2.50;99.90;;;;;;5013606;28;20649;-75
2022/01/28 06:28:25;;;;;;;4.83;3.00;;;2.50;99.90;;;;;;5013375;28;20178;-73
2022/01/28 06:30:51;;;;;;;5.70;3.27;;;2.40;99.90;;;;;;5028182;28;20420;-72
2022/01/28 06:33:16;;;;;;;8.53;4.20;;;2.40;99.90;;;;;;5013528;28;20429;-72
2022/01/28 06:35:43;;;;;;;4.50;4.10;;;2.40;99.90;;;;;;5013550;28;20174;-71
2022/01/28 06:38:10;;;;;;;6.20;2.80;;;2.40;99.90;;;;;;5013131;28;20580;-72
2022/01/28 06:40:35;;;;;;;4.50;4.10;;;2.40;99.90;;;;;;5013484;28;20245;-73
2022/01/28 06:43:01;;;;;;;4.40;2.87;;;2.50;99.90;;;;;;5013601;28;20175;-74
2022/01/28 06:45:27;;;;;;;5.50;4.20;;;2.50;99.90;;;;;;5013530;28;20171;-73
2022/01/28 06:47:52;;;;;;;6.67;3.97;;;2.50;99.90;;;;;;5013059;28;20629;-74
2022/01/28 06:50:18;;;;;;;3.20;2.80;;;2.60;99.90;;;;;;5013180;28;20209;-73
2022/01/28 06:52:44;;;;;;;7.10;5.43;;;2.60;99.90;;;;;;5013381;28;20175;-73
2022/01/28 06:55:14;;;;;;;7.85;4.13;;;2.70;99.90;;;;;;5013280;28;20229;-73
2022/01/28 06:57:40;;;;;;;5.43;4.38;;;2.60;99.90;;;;;;5014037;28;20166;-73
2022/01/28 07:00:07;;;;;;;3.05;2.85;;;2.70;99.90;;;;;;5013786;28;20190;-77
2022/01/28 07:02:33;;;;;;;7.82;4.15;;;2.70;99.90;;;;;;5013683;28;20524;-76
2022/01/28 07:04:59;;;;;;;5.13;3.47;;;2.70;99.90;;;;;;5013094;28;20171;-74
2022/01/28 07:07:26;;;;;;;3.30;2.65;;;2.70;99.90;;;;;;5012806;28;20521;-74
2022/01/28 07:09:52;;;;;;;5.25;4.85;;;2.80;99.90;;;;;;5015089;28;20203;-74
2022/01/28 07:12:19;;;;;;;6.45;4.43;;;2.80;99.90;;;;;;5012637;28;20612;-74
2022/01/28 07:14:45;;;;;;;7.03;5.38;;;2.90;99.90;;;;;;5012970;28;20195;-72
2022/01/28 07:17:12;;;;;;;5.20;3.90;;;3.00;99.90;;;;;;5013190;28;20177;-72
2022/01/28 07:19:38;;;;;;;4.35;3.30;;;3.10;99.90;;;;;;5012350;28;20202;-71
2022/01/28 07:22:04;;;;;;;6.30;3.33;;;3.20;99.90;;;;;;5012877;28;20175;-71
2022/01/28 07:24:30;;;;;;;6.53;5.93;;;3.20;99.90;;;;;;5010764;28;20461;-72
2022/01/28 07:26:56;;;;;;;8.27;5.23;;;3.20;99.90;;;;;;5011999;28;20225;-68
2022/01/28 07:29:27;;;;;;;6.73;3.70;;;3.30;99.90;;;;;;5012378;28;20274;-69
2022/01/28 07:31:52;;;;;;;3.40;2.70;;;3.40;99.90;;;;;;5009667;28;20940;-68
2022/01/28 07:34:18;;;;;;;4.03;3.57;;;3.50;99.90;;;;;;5012957;28;20256;-70
2022/01/28 07:36:45;;;;;;;5.83;3.97;;;3.50;99.90;;;;;;5013070;28;20189;-69
2022/01/28 07:39:11;;;;;;;8.45;4.00;;;3.60;99.90;;;;;;5012486;28;20412;-69
2022/01/28 07:41:37;;;;;;;5.37;4.20;;;3.60;99.90;;;;;;5013758;28;20167;-68
2022/01/28 07:44:03;;;;;;;5.10;4.60;;;3.70;99.90;;;;;;5016363;28;20179;-68
2022/01/28 07:46:29;;;;;;;5.18;4.10;;;3.70;99.90;;;;;;5015752;28;20194;-70
2022/01/28 07:48:55;;;;;;;4.40;4.00;;;3.80;99.90;;;;;;5015883;28;20201;-68
2022/01/28 07:51:21;;;;;;;7.43;6.67;;;3.90;99.90;;;;;;5016171;28;20504;-66
2022/01/28 07:53:47;;;;;;;5.30;4.17;;;4.00;99.90;;;;;;5016265;28;20464;-67
2022/01/28 07:56:14;;;;;;;7.30;5.00;;;4.00;99.90;;;;;;5016449;28;20159;-68
2022/01/28 07:58:39;;;;;;;5.95;4.20;;;4.10;99.90;;;;;;5015982;28;20174;-69
2022/01/28 08:01:05;;;;;;;10.10;6.80;;;4.10;99.90;;;;;;5016376;28;20171;-69
2022/01/28 08:03:31;;;;;;;7.73;4.87;;;4.20;99.90;;;;;;5015580;28;20660;-70
2022/01/28 08:05:56;;;;;;;5.27;4.57;;;4.30;99.90;;;;;;5032919;28;20258;-69
2022/01/28 08:08:22;;;;;;;4.33;3.30;;;4.30;99.90;;;;;;5035192;28;20166;-69
2022/01/28 08:10:48;;;;;;;4.33;3.90;;;4.30;99.90;;;;;;5017404;28;20199;-70
2022/01/28 08:13:14;;;;;;;5.25;4.05;;;4.40;99.90;;;;;;5015888;28;20167;-70
2022/01/28 08:15:40;;;;;;;6.40;5.55;;;4.40;99.90;;;;;;5015957;28;20194;-69
2022/01/28 08:18:07;;;;;;;4.55;3.75;;;4.40;99.90;;;;;;5015600;28;20171;-68
2022/01/28 08:20:33;;;;;;;4.55;4.03;;;4.40;99.90;;;;;;5015453;28;20210;-68
2022/01/28 08:23:00;;;;;;;3.88;3.25;;;4.40;99.90;;;;;;5030918;28;20637;-70
2022/01/28 08:25:28;;;;;;;4.70;3.28;;;4.50;99.90;;;;;;5015546;28;20190;-70
2022/01/28 08:27:54;;;;;;;5.97;3.97;;;4.60;99.90;;;;;;5015293;28;20506;-69
2022/01/28 08:30:25;;;;;;;9.00;4.47;;;4.60;99.90;;;;;;5015063;28;20256;-70
2022/01/28 08:32:51;;;;;;;7.95;5.28;;;4.70;99.90;;;;;;5015685;28;20171;-69
2022/01/28 08:35:24;;;;;;;4.93;3.35;;;4.90;99.90;;;;;;5015155;28;20199;-69
2022/01/28 08:37:50;;;;;;;5.22;3.75;;;5.10;99.90;;;;;;5014812;28;20549;-69
2022/01/28 08:40:17;;;;;;;9.27;3.80;;;5.20;99.90;;;;;;5015001;28;20221;-69
2022/01/28 08:42:42;;;;;;;4.35;3.75;;;5.30;99.90;;;;;;5014936;28;20519;-69
2022/01/28 08:45:08;;;;;;;3.33;3.13;;;5.50;99.90;;;;;;5015075;28;20190;-69
2022/01/28 08:47:34;;;;;;;3.80;3.50;;;5.60;99.90;;;;;;5015152;28;20178;-70
2022/01/28 08:50:00;;;;;;;6.77;3.90;;;5.60;99.90;;;;;;5008881;28;20198;-70
2022/01/28 08:52:25;;;;;;;4.63;2.37;;;5.60;99.90;;;;;;5013344;28;20185;-69
2022/01/28 08:54:51;;;;;;;3.70;3.20;;;5.60;99.90;;;;;;5014885;28;20249;-71
2022/01/28 08:57:17;;;;;;;3.63;3.43;;;5.60;99.90;;;;;;5008179;28;20177;-69
2022/01/28 08:59:44;;;;;;;2.43;2.27;;;5.60;99.90;;;;;;4998998;28;20598;-69
2022/01/28 09:02:10;;;;;;;3.40;3.10;;;5.70;99.90;;;;;;5014567;28;20178;-68
2022/01/28 09:04:36;;;;;;;4.22;3.75;;;5.70;99.90;;;;;;5015116;28;20174;-69
2022/01/28 09:07:02;;;;;;;4.67;3.77;;;5.70;99.90;;;;;;5013243;28;20590;-68
2022/01/28 09:09:29;;;;;;;4.50;3.40;;;5.80;99.90;;;;;;5014136;28;20195;-69
2022/01/28 09:12:07;;;;;;;5.50;1.85;;;5.90;99.90;;;;;;5014387;28;20428;-70
2022/01/28 09:14:33;;;;;;;9.13;3.05;;;5.90;99.90;;;;;;5012986;28;20211;-71
2022/01/28 09:16:59;;;;;;;6.00;2.13;;;5.90;99.90;;;;;;5013747;28;20181;-69
2022/01/28 09:19:25;;;;;;;3.70;2.73;;;6.00;99.90;;;;;;5014170;28;20758;-69
2022/01/28 09:21:51;;;;;;;2.40;2.20;;;6.10;99.90;;;;;;5012905;28;20182;-68
2022/01/28 09:24:17;;;;;;;1.65;1.55;;;6.20;99.90;;;;;;5014687;28;20252;-68
2022/01/28 09:26:43;;;;;;;3.70;2.15;;;6.30;99.90;;;;;;5014229;28;20177;-68
2022/01/28 09:29:09;;;;;;;2.80;2.27;;;6.40;99.90;;;;;;5017604;28;20265;-69
2022/01/28 09:31:35;;;;;;;4.55;2.95;;;6.70;99.90;;;;;;5019757;28;20432;-69
2022/01/28 09:34:01;;;;;;;3.50;2.97;;;7.30;99.90;;;;;;5014502;28;20190;-68
2022/01/28 09:36:27;;;;;;;3.73;2.67;;;8.40;99.90;;;;;;5012877;28;20258;-68
2022/01/28 09:38:53;;;;;;;3.20;1.70;;;9.50;99.90;;;;;;5013677;28;20507;-68
2022/01/28 09:41:19;;;;;;;5.20;2.37;;;10.20;99.90;;;;;;5005771;28;20244;-68
2022/01/28 09:43:46;;;;;;;4.10;2.60;;;10.40;99.90;;;;;;5009914;28;20182;-68
2022/01/28 09:46:13;;;;;;;3.57;2.40;;;10.30;99.90;;;;;;5013871;28;20476;-67
2022/01/28 09:48:39;;;;;;;3.33;2.10;;;10.40;99.90;;;;;;5013212;28;20433;-67
2022/01/28 09:51:05;;;;;;;3.87;1.70;;;10.40;99.90;;;;;;5012107;28;20506;-67
2022/01/28 09:53:32;;;;;;;5.30;2.00;;;10.30;99.90;;;;;;5013673;28;20428;-66
2022/01/28 09:55:58;;;;;;;3.10;2.00;;;10.20;99.90;;;;;;5013842;28;20368;-67
2022/01/28 09:58:27;;;;;;;3.10;1.80;;;10.70;99.90;;;;;;5013334;28;20898;-68
2022/01/28 10:00:53;;;;;;;2.97;1.70;;;10.90;99.90;;;;;;5013999;28;20405;-69
2022/01/28 10:03:19;;;;;;;1.53;1.43;;;10.90;99.90;;;;;;5013851;28;20398;-67
2022/01/28 10:05:50;;;;;;;2.67;1.73;;;10.90;99.90;;;;;;5012989;28;20171;-67
2022/01/28 10:08:20;;;;;;;1.77;1.27;;;10.90;99.90;;;;;;5013394;28;20384;-66
2022/01/28 10:10:50;;;;;;;1.80;1.60;;;11.00;99.90;;;;;;5013656;28;20428;-68
2022/01/28 10:13:20;;;;;;;1.10;1.10;;;10.80;99.90;;;;;;5013618;28;20394;-67
2022/01/28 10:15:58;;;;;;;1.60;1.20;;;10.90;99.80;;;;;;5013838;28;20387;-68
2022/01/28 10:18:39;;;;;;;5.53;2.50;;;10.70;99.30;;;;;;5013018;28;20427;-67
2022/01/28 10:21:23;;;;;;;1.97;1.77;;;10.10;99.50;;;;;;5011555;28;20520;-68
2022/01/28 10:23:54;;;;;;;1.60;1.50;;;9.70;99.90;;;;;;5013156;28;20431;-68
2022/01/28 10:26:31;;;;;;;10.03;2.03;;;9.50;99.90;;;;;;5013425;28;20431;-70
2022/01/28 10:28:58;;;;;;;3.80;1.33;;;9.60;99.90;;;;;;5011484;28;20413;-73
2022/01/28 10:31:34;;;;;;;1.30;1.20;;;10.20;99.90;;;;;;5013198;28;20394;-71
2022/01/28 10:34:14;;;;;;;2.00;1.30;;;10.80;99.90;;;;;;5013128;28;20818;-73
2022/01/28 10:36:40;;;;;;;2.30;1.40;;;11.30;99.90;;;;;;5013621;28;20384;-72
2022/01/28 10:39:13;;;;;;;1.57;1.47;;;11.30;99.00;;;;;;5012729;28;20778;-72
2022/01/28 10:41:51;;;;;;;1.00;1.00;;;11.50;99.70;;;;;;5013710;28;20433;-72
2022/01/28 10:44:16;;;;;;;4.20;2.23;;;11.40;98.90;;;;;;5012913;28;20525;-73
2022/01/28 10:46:51;;;;;;;1.67;1.27;;;11.20;98.90;;;;;;5011241;28;21011;-72
2022/01/28 10:49:16;;;;;;;2.03;1.13;;;11.30;99.20;;;;;;5012322;28;20530;-72
2022/01/28 10:51:49;;;;;;;1.60;1.50;;;11.20;98.80;;;;;;5013523;28;20463;-74
2022/01/28 10:54:22;;;;;;;3.60;1.43;;;11.00;99.00;;;;;;5013042;28;20214;-76
2022/01/28 10:56:59;;;;;;;4.63;2.07;;;11.10;98.60;;;;;;5012148;28;20387;-75
2022/01/28 10:59:32;;;;;;;1.83;1.70;;;11.40;98.70;;;;;;5013372;28;20836;-74
2022/01/28 11:01:58;;;;;;;1.80;1.57;;;11.60;97.40;;;;;;5011705;28;20804;-72
2022/01/28 11:04:24;;;;;;;2.23;1.77;;;11.80;98.10;;;;;;5012412;28;20491;-74
2022/01/28 11:06:52;;;;;;;3.00;1.47;;;12.00;97.50;;;;;;5013453;28;20411;-73
2022/01/28 11:09:20;;;;;;;3.90;1.30;;;12.10;96.20;;;;;;5012651;28;20788;-76
2022/01/28 11:11:46;;;;;;;1.60;1.50;;;11.80;95.70;;;;;;5012948;28;20495;-75
2022/01/28 11:14:12;;;;;;;1.80;1.10;;;11.50;96.20;;;;;;5013155;28;20515;-76
2022/01/28 11:16:39;;;;;;;1.23;1.03;;;11.00;96.50;;;;;;5015973;28;20904;-76
2022/01/28 11:19:06;;;;;;;2.10;1.43;;;10.70;97.30;;;;;;5015831;28;20766;-75
2022/01/28 11:21:44;;;;;;;2.50;1.00;;;10.30;97.00;;;;;;5016392;28;20502;-75
2022/01/28 11:24:31;;;;;;;1.33;1.03;;;9.80;98.10;;;;;;5016387;28;20411;-75
2022/01/28 11:27:18;;;;;;;12.40;1.80;;;9.50;98.80;;;;;;5016883;28;20435;-75
2022/01/28 11:29:44;;;;;;;2.25;1.33;;;9.20;99.50;;;;;;5015510;28;20282;-73
2022/01/28 11:32:17;;;;;;;1.20;1.10;;;8.90;99.90;;;;;;5016913;28;20198;-76
2022/01/28 11:35:02;;;;;;;2.05;1.58;;;8.80;99.90;;;;;;5016335;28;20199;-74
2022/01/28 11:37:29;;;;;;;1.02;0.95;;;8.70;99.90;;;;;;4995624;28;20171;-75
2022/01/28 11:40:07;;;;;;;2.20;1.40;;;8.60;99.90;;;;;;5000970;28;20274;-74
2022/01/28 11:42:34;;;;;;;4.35;1.75;;;8.60;99.90;;;;;;5016451;28;20221;-74
2022/01/28 11:45:03;;;;;;;2.47;1.95;;;8.40;99.90;;;;;;5016335;28;20173;-74
2022/01/28 11:47:33;;;;;;;1.55;1.35;;;8.40;99.90;;;;;;5015976;28;20179;-76
2022/01/28 11:50:11;;;;;;;3.78;1.77;;;8.30;99.90;;;;;;5015783;28;20205;-75
2022/01/28 11:52:50;;;;;;;1.90;1.55;;;8.40;99.90;;;;;;5016406;28;20186;-75
2022/01/28 11:55:28;;;;;;;2.00;1.40;;;8.30;99.90;;;;;;5006553;28;20292;-78
2022/01/28 11:58:06;;;;;;;1.85;1.00;;;8.20;99.90;;;;;;5014915;28;20178;-74
2022/01/28 12:00:40;;;;;;;1.20;1.13;;;8.30;99.90;;;;;;5012048;28;20294;-73
2022/01/28 12:03:23;;;;;;;1.80;1.65;;;8.10;99.90;;;;;;5014314;28;20695;-75
2022/01/28 12:05:56;;;;;;;1.48;1.38;;;8.10;99.90;;;;;;5009507;28;20198;-74
2022/01/28 12:08:25;;;;;;;2.13;1.60;;;8.00;99.90;;;;;;5011209;28;20179;-73
2022/01/28 12:10:53;;;;;;;8.40;4.85;;;8.00;99.90;;;;;;5003068;28;20178;-72
2022/01/28 12:13:29;;;;;;;2.88;2.42;;;8.00;99.90;;;;;;5016075;28;20249;-75
2022/01/28 12:16:00;;;;;;;1.92;1.70;;;8.00;99.90;;;;;;5013824;28;20189;-74
2022/01/28 12:18:48;;;;;;;2.55;1.70;;;7.90;99.90;;;;;;5015676;28;20177;-73
2022/01/28 12:21:25;;;;;;;2.25;1.80;;;8.00;99.90;;;;;;5014524;28;20180;-70
2022/01/28 12:23:54;;;;;;;5.85;1.88;;;8.10;99.90;;;;;;5016153;28;20175;-71
2022/01/28 12:26:20;;;;;;;2.17;1.98;;;8.10;99.90;;;;;;5015438;28;20250;-71
2022/01/28 12:28:53;;;;;;;5.17;2.07;;;8.10;99.90;;;;;;5014303;28;20277;-70
2022/01/28 12:31:29;;;;;;;2.10;2.00;;;8.10;99.90;;;;;;5015634;28;20409;-73
2022/01/28 12:34:01;;;;;;;4.22;1.90;;;8.00;99.90;;;;;;5014546;28;20190;-74
2022/01/28 12:36:38;;;;;;;4.00;2.58;;;7.90;99.90;;;;;;5015192;28;20249;-73
2022/01/28 12:39:31;;;;;;;3.15;2.15;;;7.80;99.90;;;;;;5010044;28;20187;-75
2022/01/28 12:44:32;;;;;;;3.30;3.00;;;7.70;99.90;;;;;;5015727;28;20316;-75
2022/01/28 12:47:01;;;;;;;3.03;1.98;;;7.60;99.90;;;;;;5011924;28;20178;-73
2022/01/28 12:49:33;;;;;;;2.05;1.20;;;7.60;99.90;;;;;;5015056;28;20200;-73
2022/01/28 12:52:02;;;;;;;4.50;2.45;;;7.50;99.90;;;;;;5014319;28;20198;-74
2022/01/28 12:54:41;;;;;;;2.47;1.50;;;7.50;99.90;;;;;;5015302;28;20592;-73
2022/01/28 12:57:09;;;;;;;1.70;1.30;;;7.40;99.90;;;;;;4996545;28;20549;-72
2022/01/28 12:59:35;;;;;;;3.38;2.38;;;7.30;99.90;;;;;;5015177;28;20553;-73
2022/01/28 13:02:01;;;;;;;2.40;2.20;;;7.30;99.90;;;;;;5014704;28;20174;-71
2022/01/28 13:04:48;;;;;;;8.50;2.97;;;7.30;99.90;;;;;;5015120;28;20190;-74
2022/01/28 13:09:56;;;;;;;4.68;3.05;;;7.20;99.90;;;;;;5015068;28;20228;-74
2022/01/28 13:12:30;;;;;;;4.43;2.92;;;7.10;99.90;;;;;;5015110;28;20228;-77
2022/01/28 13:15:13;;;;;;;3.55;2.55;;;7.10;99.90;;;;;;5016023;28;20281;-75
2022/01/28 13:17:40;;;;;;;5.55;2.28;;;7.20;99.90;;;;;;5014061;28;20186;-73
2022/01/28 13:20:11;;;;;;;5.55;2.55;;;7.30;99.90;;;;;;5014468;28;20205;-73
2022/01/28 13:22:38;;;;;;;2.58;2.30;;;7.40;99.90;;;;;;5014499;28;20170;-72
2022/01/28 13:25:20;;;;;;;3.70;2.58;;;7.50;99.90;;;;;;5013425;28;20240;-71
2022/01/28 13:27:49;;;;;;;2.55;2.38;;;7.50;99.90;;;;;;5014193;28;20233;-72
2022/01/28 13:30:16;;;;;;;2.97;2.72;;;7.50;99.90;;;;;;5014688;28;20276;-74
2022/01/28 13:32:47;;;;;;;2.60;2.25;;;7.50;99.90;;;;;;5012877;28;20178;-73
2022/01/28 13:35:21;;;;;;;2.47;2.05;;;7.50;99.90;;;;;;5014484;28;20545;-72
2022/01/28 13:38:01;;;;;;;7.15;3.58;;;7.40;99.90;;;;;;5013772;28;20179;-72
2022/01/28 13:40:27;;;;;;;4.30;2.80;;;7.30;99.90;;;;;;5014434;28;20190;-72
2022/01/28 13:42:55;;;;;;;3.43;2.80;;;7.30;99.90;;;;;;5014454;28;20170;-73
2022/01/28 13:45:36;;;;;;;5.40;3.00;;;7.20;99.90;;;;;;5014250;28;20174;-74
2022/01/28 13:48:05;;;;;;;4.75;3.30;;;7.10;99.90;;;;;;5013847;28;20174;-72
2022/01/28 13:50:33;;;;;;;4.28;2.65;;;7.10;99.90;;;;;;5014295;28;20285;-74
2022/01/28 13:55:54;;;;;;;3.78;2.88;;;6.90;99.90;;;;;;5014145;28;20209;-73
2022/01/28 13:58:21;;;;;;;5.35;3.50;;;6.90;99.90;;;;;;5013675;28;20170;-73
2022/01/28 14:00:50;;;;;;;4.32;3.00;;;6.80;99.90;;;;;;5013959;28;20285;-73
2022/01/28 14:03:23;;;;;;;4.18;2.80;;;6.80;99.90;;;;;;5012512;28;20221;-72
2022/01/28 14:05:53;;;;;;;4.70;2.60;;;6.80;99.90;;;;;;5014026;28;20182;-72
2022/01/28 14:08:38;;;;;;;2.80;2.60;;;6.80;99.90;;;;;;5013607;28;20190;-74
2022/01/28 14:11:22;;;;;;;4.10;3.60;;;6.80;99.90;;;;;;5014141;28;20643;-72
2022/01/28 14:14:12;;;;;;;3.72;3.13;;;6.80;99.90;;;;;;5013815;28;20183;-74
2022/01/28 14:16:37;;;;;;;5.70;2.70;;;6.70;99.90;;;;;;5013673;28;20639;-73
2022/01/28 14:19:03;;;;;;;1.83;1.73;;;6.60;99.90;;;;;;5013305;28;20277;-73
2022/01/28 14:21:29;;;;;;;4.68;3.70;;;6.60;99.90;;;;;;5013987;28;20227;-73
2022/01/28 14:23:55;;;;;;;3.90;3.30;;;6.50;99.90;;;;;;5012516;28;20235;-72
2022/01/28 14:26:20;;;;;;;2.97;2.77;;;6.50;99.90;;;;;;5013549;28;20252;-73
2022/01/28 14:31:22;;;;;;;5.80;2.95;;;6.50;99.90;;;;;;5013949;28;20175;-72
2022/01/28 14:33:49;;;;;;;4.17;3.13;;;6.50;99.90;;;;;;5013204;28;20605;-74
2022/01/28 14:36:15;;;;;;;5.55;3.63;;;6.50;99.90;;;;;;5013691;28;20162;-72
2022/01/28 14:38:42;;;;;;;4.10;3.15;;;6.50;99.90;;;;;;5011934;28;20172;-73
2022/01/28 14:41:10;;;;;;;2.90;2.55;;;6.60;99.90;;;;;;5013649;28;20166;-72